sensor_id;sensor_type;location;lat;lon;timestamp;pressure;altitude;pressure_sealevel;temperature;humidity
61805;BME280;47725;47.912;7.356;2023-05-21T00:03:38;98819.81;;;19.59;52.60
61805;BME280;47725;47.912;7.356;2023-05-21T00:07:38;98818.75;;;19.56;52.84
61805;BME280;47725;47.912;7.356;2023-05-21T00:11:38;98816.71;;;19.52;52.71
61805;BME280;47725;47.912;7.356;2023-05-21T00:15:38;98815.09;;;19.50;52.84
61805;BME280;47725;47.912;7.356;2023-05-21T00:19:38;98814.45;;;19.47;52.95
61805;BME280;47725;47.912;7.356;2023-05-21T00:23:38;98813.28;;;19.44;53.05
61805;BME280;47725;47.912;7.356;2023-05-21T00:27:38;98812.58;;;19.42;53.04
61805;BME280;47725;47.912;7.356;2023-05-21T00:31:38;98811.11;;;19.40;52.98
61805;BME280;47725;47.912;7.356;2023-05-21T00:35:38;98809.23;;;19.39;53.14
61805;BME280;47725;47.912;7.356;2023-05-21T00:39:38;98806.75;;;19.36;53.21
61805;BME280;47725;47.912;7.356;2023-05-21T00:43:38;98804.30;;;19.33;53.39
61805;BME280;47725;47.912;7.356;2023-05-21T00:47:38;98801.60;;;19.30;53.71
61805;BME280;47725;47.912;7.356;2023-05-21T00:51:38;98798.51;;;19.28;53.75
61805;BME280;47725;47.912;7.356;2023-05-21T00:55:38;98794.96;;;19.26;53.69
61805;BME280;47725;47.912;7.356;2023-05-21T00:59:38;98791.76;;;19.24;53.79
61805;BME280;47725;47.912;7.356;2023-05-21T01:03:38;98788.33;;;19.24;53.53
61805;BME280;47725;47.912;7.356;2023-05-21T01:07:38;98786.47;;;19.24;53.46
61805;BME280;47725;47.912;7.356;2023-05-21T01:11:45;98785.16;;;19.24;53.61
61805;BME280;47725;47.912;7.356;2023-05-21T01:15:38;98784.03;;;19.23;53.70
61805;BME280;47725;47.912;7.356;2023-05-21T01:19:38;98784.86;;;19.19;54.12
61805;BME280;47725;47.912;7.356;2023-05-21T01:23:38;98785.71;;;19.16;54.02
61805;BME280;47725;47.912;7.356;2023-05-21T01:27:38;98785.33;;;19.12;54.34
61805;BME280;47725;47.912;7.356;2023-05-21T01:35:38;98786.13;;;19.05;54.53
61805;BME280;47725;47.912;7.356;2023-05-21T01:39:38;98785.72;;;19.01;54.76
61805;BME280;47725;47.912;7.356;2023-05-21T01:43:38;98784.58;;;18.98;54.64
61805;BME280;47725;47.912;7.356;2023-05-21T01:47:38;98784.20;;;18.96;54.83
61805;BME280;47725;47.912;7.356;2023-05-21T01:51:38;98783.31;;;18.92;54.92
61805;BME280;47725;47.912;7.356;2023-05-21T01:55:38;98781.76;;;18.90;55.09
61805;BME280;47725;47.912;7.356;2023-05-21T01:59:38;98779.97;;;18.87;55.12
61805;BME280;47725;47.912;7.356;2023-05-21T02:03:38;98779.11;;;18.84;54.96
61805;BME280;47725;47.912;7.356;2023-05-21T02:07:38;98777.42;;;18.82;55.30
61805;BME280;47725;47.912;7.356;2023-05-21T02:11:38;98774.93;;;18.80;55.34
61805;BME280;47725;47.912;7.356;2023-05-21T02:15:38;98771.48;;;18.78;55.08
61805;BME280;47725;47.912;7.356;2023-05-21T02:19:38;98768.94;;;18.77;55.22
61805;BME280;47725;47.912;7.356;2023-05-21T02:23:38;98766.31;;;18.75;55.24
61805;BME280;47725;47.912;7.356;2023-05-21T02:27:38;98764.08;;;18.73;55.29
61805;BME280;47725;47.912;7.356;2023-05-21T02:31:38;98762.15;;;18.71;55.36
61805;BME280;47725;47.912;7.356;2023-05-21T02:35:38;98760.49;;;18.68;55.45
61805;BME280;47725;47.912;7.356;2023-05-21T02:39:38;98758.78;;;18.66;55.46
61805;BME280;47725;47.912;7.356;2023-05-21T02:43:38;98757.21;;;18.64;55.31
61805;BME280;47725;47.912;7.356;2023-05-21T02:47:38;98756.44;;;18.63;55.25
61805;BME280;47725;47.912;7.356;2023-05-21T02:51:38;98755.11;;;18.62;55.47
61805;BME280;47725;47.912;7.356;2023-05-21T02:55:38;98754.30;;;18.60;55.41
61805;BME280;47725;47.912;7.356;2023-05-21T02:59:38;98754.04;;;18.58;55.45
61805;BME280;47725;47.912;7.356;2023-05-21T03:03:38;98753.64;;;18.55;55.47
61805;BME280;47725;47.912;7.356;2023-05-21T03:07:38;98753.66;;;18.52;55.61
61805;BME280;47725;47.912;7.356;2023-05-21T03:11:38;98752.67;;;18.48;55.63
61805;BME280;47725;47.912;7.356;2023-05-21T03:15:38;98752.31;;;18.45;55.80
61805;BME280;47725;47.912;7.356;2023-05-21T03:19:38;98752.25;;;18.40;55.99
61805;BME280;47725;47.912;7.356;2023-05-21T03:23:38;98752.97;;;18.36;55.97
61805;BME280;47725;47.912;7.356;2023-05-21T03:27:38;98753.97;;;18.32;56.10
61805;BME280;47725;47.912;7.356;2023-05-21T03:31:38;98756.30;;;18.27;56.21
61805;BME280;47725;47.912;7.356;2023-05-21T03:35:38;98759.70;;;18.23;56.28
61805;BME280;47725;47.912;7.356;2023-05-21T03:39:38;98763.22;;;18.19;56.29
61805;BME280;47725;47.912;7.356;2023-05-21T03:43:38;98767.69;;;18.16;56.39
61805;BME280;47725;47.912;7.356;2023-05-21T03:47:38;98770.74;;;18.11;56.55
61805;BME280;47725;47.912;7.356;2023-05-21T03:51:38;98774.94;;;18.06;56.64
61805;BME280;47725;47.912;7.356;2023-05-21T03:55:38;98779.55;;;18.01;56.75
61805;BME280;47725;47.912;7.356;2023-05-21T03:59:38;98783.09;;;17.95;56.91
61805;BME280;47725;47.912;7.356;2023-05-21T04:03:37;98787.35;;;17.90;56.98
61805;BME280;47725;47.912;7.356;2023-05-21T04:07:37;98791.13;;;17.84;57.15
61805;BME280;47725;47.912;7.356;2023-05-21T04:11:37;98794.97;;;17.79;57.20
61805;BME280;47725;47.912;7.356;2023-05-21T04:15:37;98799.72;;;17.74;57.28
61805;BME280;47725;47.912;7.356;2023-05-21T04:19:37;98803.46;;;17.69;57.34
61805;BME280;47725;47.912;7.356;2023-05-21T04:23:37;98807.61;;;17.65;57.37
61805;BME280;47725;47.912;7.356;2023-05-21T04:27:37;98811.67;;;17.60;57.67
61805;BME280;47725;47.912;7.356;2023-05-21T04:31:37;98814.95;;;17.55;57.77
61805;BME280;47725;47.912;7.356;2023-05-21T04:35:37;98817.46;;;17.51;57.76
61805;BME280;47725;47.912;7.356;2023-05-21T04:39:37;98819.69;;;17.47;57.84
61805;BME280;47725;47.912;7.356;2023-05-21T04:43:37;98822.81;;;17.44;57.78
61805;BME280;47725;47.912;7.356;2023-05-21T04:47:37;98824.91;;;17.42;57.84
61805;BME280;47725;47.912;7.356;2023-05-21T04:51:37;98825.58;;;17.39;57.99
61805;BME280;47725;47.912;7.356;2023-05-21T04:55:37;98824.58;;;17.38;57.94
61805;BME280;47725;47.912;7.356;2023-05-21T04:59:37;98825.27;;;17.37;58.02
61805;BME280;47725;47.912;7.356;2023-05-21T05:03:37;98827.62;;;17.36;58.03
61805;BME280;47725;47.912;7.356;2023-05-21T05:07:37;98831.02;;;17.36;58.10
61805;BME280;47725;47.912;7.356;2023-05-21T05:11:37;98833.87;;;17.35;58.37
61805;BME280;47725;47.912;7.356;2023-05-21T05:15:37;98837.65;;;17.33;58.55
61805;BME280;47725;47.912;7.356;2023-05-21T05:19:37;98841.03;;;17.32;58.56
61805;BME280;47725;47.912;7.356;2023-05-21T05:23:37;98843.41;;;17.32;58.50
61805;BME280;47725;47.912;7.356;2023-05-21T05:27:37;98845.61;;;17.33;58.57
61805;BME280;47725;47.912;7.356;2023-05-21T05:31:37;98847.33;;;17.35;58.62
61805;BME280;47725;47.912;7.356;2023-05-21T05:35:37;98848.64;;;17.37;58.63
61805;BME280;47725;47.912;7.356;2023-05-21T05:39:37;98848.52;;;17.41;58.63
61805;BME280;47725;47.912;7.356;2023-05-21T05:43:37;98848.86;;;17.48;58.51
61805;BME280;47725;47.912;7.356;2023-05-21T05:47:37;98849.11;;;17.57;58.68
61805;BME280;47725;47.912;7.356;2023-05-21T05:51:37;98848.78;;;17.67;58.42
61805;BME280;47725;47.912;7.356;2023-05-21T05:55:38;98848.05;;;17.79;58.06
61805;BME280;47725;47.912;7.356;2023-05-21T05:59:37;98847.45;;;17.93;57.95
61805;BME280;47725;47.912;7.356;2023-05-21T06:03:37;98846.30;;;18.06;57.79
61805;BME280;47725;47.912;7.356;2023-05-21T06:07:38;98845.76;;;18.19;57.83
61805;BME280;47725;47.912;7.356;2023-05-21T06:11:37;98844.26;;;18.32;57.91
61805;BME280;47725;47.912;7.356;2023-05-21T06:15:37;98841.69;;;18.44;57.88
61805;BME280;47725;47.912;7.356;2023-05-21T06:19:38;98840.12;;;18.56;57.68
61805;BME280;47725;47.912;7.356;2023-05-21T06:23:37;98839.08;;;18.67;57.56
61805;BME280;47725;47.912;7.356;2023-05-21T06:27:37;98838.89;;;18.77;57.58
61805;BME280;47725;47.912;7.356;2023-05-21T06:31:37;98838.58;;;18.87;57.57
61805;BME280;47725;47.912;7.356;2023-05-21T06:35:37;98837.94;;;18.97;57.42
61805;BME280;47725;47.912;7.356;2023-05-21T06:39:37;98837.48;;;19.08;57.20
61805;BME280;47725;47.912;7.356;2023-05-21T06:43:37;98838.15;;;19.20;57.21
61805;BME280;47725;47.912;7.356;2023-05-21T06:47:37;98837.83;;;19.32;57.20
61805;BME280;47725;47.912;7.356;2023-05-21T06:51:37;98835.96;;;19.43;56.88
61805;BME280;47725;47.912;7.356;2023-05-21T06:55:37;98834.08;;;19.54;56.91
61805;BME280;47725;47.912;7.356;2023-05-21T06:59:37;98833.28;;;19.65;56.96
61805;BME280;47725;47.912;7.356;2023-05-21T07:03:37;98832.51;;;19.78;56.59
61805;BME280;47725;47.912;7.356;2023-05-21T07:07:37;98831.61;;;19.91;56.58
61805;BME280;47725;47.912;7.356;2023-05-21T07:11:37;98831.50;;;20.03;56.46
61805;BME280;47725;47.912;7.356;2023-05-21T07:15:37;98831.84;;;20.16;56.13
61805;BME280;47725;47.912;7.356;2023-05-21T07:19:37;98832.12;;;20.30;56.13
61805;BME280;47725;47.912;7.356;2023-05-21T07:23:37;98831.02;;;20.45;55.63
61805;BME280;47725;47.912;7.356;2023-05-21T07:27:37;98830.05;;;20.59;55.33
61805;BME280;47725;47.912;7.356;2023-05-21T07:31:37;98828.26;;;20.72;55.03
61805;BME280;47725;47.912;7.356;2023-05-21T07:35:37;98825.94;;;20.86;54.75
61805;BME280;47725;47.912;7.356;2023-05-21T07:39:37;98823.86;;;20.99;54.40
61805;BME280;47725;47.912;7.356;2023-05-21T07:43:37;98821.12;;;21.12;54.40
61805;BME280;47725;47.912;7.356;2023-05-21T07:47:37;98819.24;;;21.25;54.46
61805;BME280;47725;47.912;7.356;2023-05-21T07:51:37;98817.64;;;21.39;54.18
61805;BME280;47725;47.912;7.356;2023-05-21T07:55:37;98817.38;;;21.52;53.69
61805;BME280;47725;47.912;7.356;2023-05-21T07:59:37;98817.11;;;21.65;53.83
61805;BME280;47725;47.912;7.356;2023-05-21T08:03:37;98815.13;;;21.81;53.32
61805;BME280;47725;47.912;7.356;2023-05-21T08:07:37;98815.05;;;21.98;53.08
61805;BME280;47725;47.912;7.356;2023-05-21T08:11:37;98815.30;;;22.14;52.86
61805;BME280;47725;47.912;7.356;2023-05-21T08:15:37;98815.65;;;22.32;52.12
61805;BME280;47725;47.912;7.356;2023-05-21T08:19:37;98815.09;;;22.50;52.28
61805;BME280;47725;47.912;7.356;2023-05-21T08:23:37;98813.42;;;22.67;51.57
61805;BME280;47725;47.912;7.356;2023-05-21T08:27:37;98811.38;;;22.82;51.36
61805;BME280;47725;47.912;7.356;2023-05-21T08:31:37;98809.39;;;22.97;51.58
61805;BME280;47725;47.912;7.356;2023-05-21T08:35:37;98808.10;;;23.13;50.77
61805;BME280;47725;47.912;7.356;2023-05-21T08:39:37;98806.39;;;23.27;50.55
61805;BME280;47725;47.912;7.356;2023-05-21T08:43:37;98804.53;;;23.42;49.99
61805;BME280;47725;47.912;7.356;2023-05-21T08:47:37;98802.23;;;23.56;49.92
61805;BME280;47725;47.912;7.356;2023-05-21T08:51:37;98800.85;;;23.71;49.41
61805;BME280;47725;47.912;7.356;2023-05-21T08:55:37;98800.34;;;23.82;49.27
61805;BME280;47725;47.912;7.356;2023-05-21T08:59:37;98799.73;;;23.91;49.50
61805;BME280;47725;47.912;7.356;2023-05-21T09:03:38;98799.33;;;23.98;49.72
61805;BME280;47725;47.912;7.356;2023-05-21T09:07:46;98798.55;;;24.06;49.54
61805;BME280;47725;47.912;7.356;2023-05-21T09:11:37;98797.67;;;24.15;49.23
61805;BME280;47725;47.912;7.356;2023-05-21T09:15:37;98798.02;;;24.28;48.89
61805;BME280;47725;47.912;7.356;2023-05-21T09:19:37;98798.14;;;24.42;48.74
61805;BME280;47725;47.912;7.356;2023-05-21T09:23:37;98799.13;;;24.57;47.71
61805;BME280;47725;47.912;7.356;2023-05-21T09:27:37;98800.89;;;24.70;47.56
61805;BME280;47725;47.912;7.356;2023-05-21T09:31:41;98802.28;;;24.82;47.64
61805;BME280;47725;47.912;7.356;2023-05-21T09:35:43;98803.74;;;24.97;47.72
61805;BME280;47725;47.912;7.356;2023-05-21T09:39:38;98804.55;;;25.14;46.96
61805;BME280;47725;47.912;7.356;2023-05-21T09:43:37;98804.02;;;25.33;46.30
61805;BME280;47725;47.912;7.356;2023-05-21T09:47:40;98802.61;;;25.51;46.09
61805;BME280;47725;47.912;7.356;2023-05-21T09:51:37;98800.48;;;25.69;45.99
61805;BME280;47725;47.912;7.356;2023-05-21T09:55:38;98798.29;;;25.87;45.88
61805;BME280;47725;47.912;7.356;2023-05-21T09:59:37;98797.45;;;26.06;45.20
61805;BME280;47725;47.912;7.356;2023-05-21T10:03:37;98796.95;;;26.23;44.71
61805;BME280;47725;47.912;7.356;2023-05-21T10:07:37;98795.98;;;26.37;44.56
61805;BME280;47725;47.912;7.356;2023-05-21T10:11:37;98794.89;;;26.50;44.36
61805;BME280;47725;47.912;7.356;2023-05-21T10:15:38;98792.94;;;26.62;43.85
61805;BME280;47725;47.912;7.356;2023-05-21T10:19:37;98792.13;;;26.71;44.04
61805;BME280;47725;47.912;7.356;2023-05-21T10:23:37;98790.09;;;26.80;43.57
61805;BME280;47725;47.912;7.356;2023-05-21T10:27:37;98787.38;;;26.87;43.88
61805;BME280;47725;47.912;7.356;2023-05-21T10:31:37;98783.17;;;26.94;43.91
61805;BME280;47725;47.912;7.356;2023-05-21T10:35:37;98779.30;;;27.02;43.54
61805;BME280;47725;47.912;7.356;2023-05-21T10:39:37;98775.30;;;27.09;43.03
61805;BME280;47725;47.912;7.356;2023-05-21T10:59:44;98757.22;;;27.31;41.80
61805;BME280;47725;47.912;7.356;2023-05-21T11:03:37;98753.53;;;27.41;41.15
61805;BME280;47725;47.912;7.356;2023-05-21T11:07:49;98750.45;;;27.53;41.13
61805;BME280;47725;47.912;7.356;2023-05-21T11:19:38;98743.38;;;27.82;39.87
61805;BME280;47725;47.912;7.356;2023-05-21T11:23:52;98742.10;;;27.97;39.19
61805;BME280;47725;47.912;7.356;2023-05-21T11:27:40;98741.08;;;28.14;38.94
61805;BME280;47725;47.912;7.356;2023-05-21T11:31:37;98740.34;;;28.31;38.67
61805;BME280;47725;47.912;7.356;2023-05-21T11:35:37;98739.84;;;28.49;38.34
61805;BME280;47725;47.912;7.356;2023-05-21T11:39:40;98740.02;;;28.66;37.80
61805;BME280;47725;47.912;7.356;2023-05-21T11:43:40;98739.72;;;28.82;38.41
61805;BME280;47725;47.912;7.356;2023-05-21T11:47:38;98737.64;;;28.94;37.64
61805;BME280;47725;47.912;7.356;2023-05-21T11:51:38;98735.68;;;29.00;37.66
61805;BME280;47725;47.912;7.356;2023-05-21T11:55:37;98733.46;;;29.06;36.89
61805;BME280;47725;47.912;7.356;2023-05-21T11:59:37;98731.09;;;29.13;36.73
61805;BME280;47725;47.912;7.356;2023-05-21T12:03:37;98730.50;;;29.21;37.24
61805;BME280;47725;47.912;7.356;2023-05-21T12:07:37;98729.61;;;29.28;35.74
61805;BME280;47725;47.912;7.356;2023-05-21T12:11:37;98729.64;;;29.30;36.44
61805;BME280;47725;47.912;7.356;2023-05-21T12:15:37;98728.23;;;29.33;36.70
61805;BME280;47725;47.912;7.356;2023-05-21T12:19:37;98726.50;;;29.40;35.73
61805;BME280;47725;47.912;7.356;2023-05-21T12:23:37;98723.46;;;29.49;36.30
61805;BME280;47725;47.912;7.356;2023-05-21T12:27:37;98720.89;;;29.60;36.20
61805;BME280;47725;47.912;7.356;2023-05-21T12:31:46;98718.27;;;29.73;36.11
61805;BME280;47725;47.912;7.356;2023-05-21T12:35:37;98716.52;;;29.87;35.48
61805;BME280;47725;47.912;7.356;2023-05-21T12:39:41;98714.62;;;30.00;34.70
61805;BME280;47725;47.912;7.356;2023-05-21T12:43:37;98712.97;;;30.10;35.40
61805;BME280;47725;47.912;7.356;2023-05-21T12:47:37;98713.56;;;30.20;35.19
61805;BME280;47725;47.912;7.356;2023-05-21T12:51:37;98716.02;;;30.30;34.47
61805;BME280;47725;47.912;7.356;2023-05-21T12:55:37;98718.58;;;30.41;34.69
61805;BME280;47725;47.912;7.356;2023-05-21T12:59:46;98721.94;;;30.54;33.13
61805;BME280;47725;47.912;7.356;2023-05-21T13:03:37;98726.29;;;30.61;33.21
61805;BME280;47725;47.912;7.356;2023-05-21T13:07:38;98729.64;;;30.66;33.56
61805;BME280;47725;47.912;7.356;2023-05-21T13:11:37;98731.83;;;30.72;32.84
61805;BME280;47725;47.912;7.356;2023-05-21T13:15:37;98733.69;;;30.76;33.05
61805;BME280;47725;47.912;7.356;2023-05-21T13:19:40;98733.50;;;30.78;33.17
61805;BME280;47725;47.912;7.356;2023-05-21T13:23:37;98732.50;;;30.78;33.89
61805;BME280;47725;47.912;7.356;2023-05-21T13:27:37;98729.66;;;30.78;33.89
61805;BME280;47725;47.912;7.356;2023-05-21T13:31:37;98726.21;;;30.76;33.83
61805;BME280;47725;47.912;7.356;2023-05-21T13:35:37;98722.60;;;30.70;34.46
61805;BME280;47725;47.912;7.356;2023-05-21T13:39:37;98718.02;;;30.59;34.77
61805;BME280;47725;47.912;7.356;2023-05-21T13:43:37;98714.56;;;30.48;35.31
61805;BME280;47725;47.912;7.356;2023-05-21T13:47:37;98710.07;;;30.38;35.76
61805;BME280;47725;47.912;7.356;2023-05-21T13:51:37;98705.88;;;30.31;35.91
61805;BME280;47725;47.912;7.356;2023-05-21T13:55:37;98701.09;;;30.26;35.51
61805;BME280;47725;47.912;7.356;2023-05-21T13:59:37;98696.31;;;30.23;34.60
61805;BME280;47725;47.912;7.356;2023-05-21T14:03:37;98692.03;;;30.19;34.46
61805;BME280;47725;47.912;7.356;2023-05-21T14:07:37;98688.67;;;30.16;34.41
61805;BME280;47725;47.912;7.356;2023-05-21T14:11:37;98685.25;;;30.13;34.63
61805;BME280;47725;47.912;7.356;2023-05-21T14:15:37;98684.24;;;30.12;34.82
61805;BME280;47725;47.912;7.356;2023-05-21T14:19:37;98683.98;;;30.10;35.03
61805;BME280;47725;47.912;7.356;2023-05-21T14:23:37;98682.98;;;30.10;34.70
61805;BME280;47725;47.912;7.356;2023-05-21T14:27:37;98681.56;;;30.09;34.97
61805;BME280;47725;47.912;7.356;2023-05-21T14:31:37;98680.98;;;30.08;34.97
61805;BME280;47725;47.912;7.356;2023-05-21T14:35:37;98680.05;;;30.12;34.88
61805;BME280;47725;47.912;7.356;2023-05-21T14:39:37;98677.88;;;30.19;34.97
61805;BME280;47725;47.912;7.356;2023-05-21T14:43:37;98676.79;;;30.31;34.94
61805;BME280;47725;47.912;7.356;2023-05-21T14:47:37;98675.83;;;30.43;33.85
61805;BME280;47725;47.912;7.356;2023-05-21T14:51:37;98674.73;;;30.52;34.05
61805;BME280;47725;47.912;7.356;2023-05-21T14:55:37;98672.88;;;30.58;33.43
61805;BME280;47725;47.912;7.356;2023-05-21T14:59:37;98671.56;;;30.62;33.09
61805;BME280;47725;47.912;7.356;2023-05-21T15:03:37;98670.94;;;30.65;32.59
61805;BME280;47725;47.912;7.356;2023-05-21T15:07:37;98671.03;;;30.68;33.06
61805;BME280;47725;47.912;7.356;2023-05-21T15:11:37;98671.70;;;30.70;32.83
61805;BME280;47725;47.912;7.356;2023-05-21T15:15:37;98673.55;;;30.70;33.08
61805;BME280;47725;47.912;7.356;2023-05-21T15:19:37;98674.55;;;30.71;33.35
61805;BME280;47725;47.912;7.356;2023-05-21T15:23:37;98675.07;;;30.71;33.71
61805;BME280;47725;47.912;7.356;2023-05-21T15:27:37;98675.56;;;30.70;33.59
61805;BME280;47725;47.912;7.356;2023-05-21T15:31:37;98676.50;;;30.67;34.07
61805;BME280;47725;47.912;7.356;2023-05-21T15:35:37;98678.83;;;30.62;33.72
61805;BME280;47725;47.912;7.356;2023-05-21T15:39:37;98681.28;;;30.56;33.83
61805;BME280;47725;47.912;7.356;2023-05-21T15:43:37;98682.97;;;30.53;33.78
61805;BME280;47725;47.912;7.356;2023-05-21T15:47:37;98682.78;;;30.49;33.68
61805;BME280;47725;47.912;7.356;2023-05-21T15:51:37;98683.47;;;30.47;33.76
61805;BME280;47725;47.912;7.356;2023-05-21T15:55:37;98684.30;;;30.46;33.41
61805;BME280;47725;47.912;7.356;2023-05-21T15:59:37;98683.97;;;30.44;33.29
61805;BME280;47725;47.912;7.356;2023-05-21T16:03:37;98683.12;;;30.43;33.55
61805;BME280;47725;47.912;7.356;2023-05-21T16:07:37;98683.64;;;30.40;33.47
61805;BME280;47725;47.912;7.356;2023-05-21T16:11:37;98684.94;;;30.36;33.88
61805;BME280;47725;47.912;7.356;2023-05-21T16:15:37;98686.70;;;30.30;34.03
61805;BME280;47725;47.912;7.356;2023-05-21T16:19:37;98688.01;;;30.23;34.78
61805;BME280;47725;47.912;7.356;2023-05-21T16:23:37;98689.68;;;30.19;34.79
61805;BME280;47725;47.912;7.356;2023-05-21T16:27:37;98691.28;;;30.12;34.97
61805;BME280;47725;47.912;7.356;2023-05-21T16:31:37;98694.42;;;30.00;35.80
61805;BME280;47725;47.912;7.356;2023-05-21T16:35:37;98697.85;;;29.87;36.17
61805;BME280;47725;47.912;7.356;2023-05-21T16:39:37;98699.17;;;29.73;36.17
61805;BME280;47725;47.912;7.356;2023-05-21T16:43:37;98699.22;;;29.54;36.47
61805;BME280;47725;47.912;7.356;2023-05-21T16:47:37;98698.63;;;29.36;36.46
61805;BME280;47725;47.912;7.356;2023-05-21T16:51:37;98698.67;;;29.19;36.57
61805;BME280;47725;47.912;7.356;2023-05-21T16:55:37;98698.68;;;29.05;36.46
61805;BME280;47725;47.912;7.356;2023-05-21T16:59:37;98699.27;;;28.93;37.01
61805;BME280;47725;47.912;7.356;2023-05-21T17:03:37;98699.93;;;28.81;37.40
61805;BME280;47725;47.912;7.356;2023-05-21T17:07:37;98702.42;;;28.68;37.93
61805;BME280;47725;47.912;7.356;2023-05-21T17:11:37;98703.97;;;28.54;38.11
61805;BME280;47725;47.912;7.356;2023-05-21T17:15:37;98706.27;;;28.43;38.52
61805;BME280;47725;47.912;7.356;2023-05-21T17:19:37;98708.03;;;28.33;38.61
61805;BME280;47725;47.912;7.356;2023-05-21T17:23:37;98708.71;;;28.23;38.55
61805;BME280;47725;47.912;7.356;2023-05-21T17:27:36;98711.00;;;28.12;38.98
61805;BME280;47725;47.912;7.356;2023-05-21T17:31:37;98714.76;;;27.97;39.10
61805;BME280;47725;47.912;7.356;2023-05-21T17:35:37;98718.91;;;27.80;38.85
61805;BME280;47725;47.912;7.356;2023-05-21T17:39:36;98722.38;;;27.64;38.91
61805;BME280;47725;47.912;7.356;2023-05-21T17:43:37;98726.19;;;27.49;39.08
61805;BME280;47725;47.912;7.356;2023-05-21T17:47:37;98730.31;;;27.34;39.25
61805;BME280;47725;47.912;7.356;2023-05-21T17:51:37;98734.19;;;27.19;39.50
61805;BME280;47725;47.912;7.356;2023-05-21T17:55:37;98738.65;;;27.06;39.67
61805;BME280;47725;47.912;7.356;2023-05-21T17:59:36;98743.47;;;26.93;39.73
61805;BME280;47725;47.912;7.356;2023-05-21T18:03:36;98747.36;;;26.81;40.06
61805;BME280;47725;47.912;7.356;2023-05-21T18:07:37;98749.84;;;26.70;40.05
61805;BME280;47725;47.912;7.356;2023-05-21T18:11:37;98751.97;;;26.60;40.13
61805;BME280;47725;47.912;7.356;2023-05-21T18:15:37;98753.20;;;26.49;40.49
61805;BME280;47725;47.912;7.356;2023-05-21T18:19:37;98754.65;;;26.36;40.80
61805;BME280;47725;47.912;7.356;2023-05-21T18:23:36;98755.35;;;26.23;40.85
61805;BME280;47725;47.912;7.356;2023-05-21T18:27:37;98754.75;;;26.10;41.02
61805;BME280;47725;47.912;7.356;2023-05-21T18:31:37;98754.96;;;25.99;41.15
61805;BME280;47725;47.912;7.356;2023-05-21T18:35:36;98756.71;;;25.89;41.20
61805;BME280;47725;47.912;7.356;2023-05-21T18:39:36;98759.52;;;25.79;41.11
61805;BME280;47725;47.912;7.356;2023-05-21T18:43:36;98762.05;;;25.68;41.21
61805;BME280;47725;47.912;7.356;2023-05-21T18:47:37;98764.67;;;25.58;41.16
61805;BME280;47725;47.912;7.356;2023-05-21T18:51:36;98766.39;;;25.49;41.20
61805;BME280;47725;47.912;7.356;2023-05-21T18:55:36;98766.77;;;25.41;41.16
61805;BME280;47725;47.912;7.356;2023-05-21T18:59:36;98767.44;;;25.33;41.26
61805;BME280;47725;47.912;7.356;2023-05-21T19:03:37;98768.44;;;25.24;41.45
61805;BME280;47725;47.912;7.356;2023-05-21T19:07:36;98769.02;;;25.15;41.53
61805;BME280;47725;47.912;7.356;2023-05-21T19:11:36;98768.72;;;25.07;41.67
61805;BME280;47725;47.912;7.356;2023-05-21T19:15:36;98768.41;;;24.98;41.75
61805;BME280;47725;47.912;7.356;2023-05-21T19:19:36;98768.56;;;24.89;41.96
61805;BME280;47725;47.912;7.356;2023-05-21T19:23:36;98769.25;;;24.80;42.00
61805;BME280;47725;47.912;7.356;2023-05-21T19:27:36;98770.94;;;24.71;42.28
61805;BME280;47725;47.912;7.356;2023-05-21T19:31:36;98772.36;;;24.62;42.24
61805;BME280;47725;47.912;7.356;2023-05-21T19:35:36;98775.59;;;24.53;42.31
61805;BME280;47725;47.912;7.356;2023-05-21T19:39:37;98778.75;;;24.41;42.63
61805;BME280;47725;47.912;7.356;2023-05-21T19:43:36;98782.86;;;24.30;42.88
61805;BME280;47725;47.912;7.356;2023-05-21T19:47:36;98788.55;;;24.19;43.14
61805;BME280;47725;47.912;7.356;2023-05-21T19:51:36;98793.36;;;24.06;43.70
61805;BME280;47725;47.912;7.356;2023-05-21T19:55:36;98798.77;;;23.92;44.63
61805;BME280;47725;47.912;7.356;2023-05-21T19:59:36;98804.64;;;23.76;44.82
61805;BME280;47725;47.912;7.356;2023-05-21T20:03:36;98811.11;;;23.59;45.00
61805;BME280;47725;47.912;7.356;2023-05-21T20:07:36;98817.85;;;23.41;45.42
61805;BME280;47725;47.912;7.356;2023-05-21T20:11:36;98821.87;;;23.24;45.69
61805;BME280;47725;47.912;7.356;2023-05-21T20:15:36;98824.44;;;23.07;46.05
61805;BME280;47725;47.912;7.356;2023-05-21T20:19:36;98826.33;;;22.90;46.57
61805;BME280;47725;47.912;7.356;2023-05-21T20:23:36;98829.75;;;22.74;47.20
61805;BME280;47725;47.912;7.356;2023-05-21T20:27:36;98832.54;;;22.59;47.76
61805;BME280;47725;47.912;7.356;2023-05-21T20:31:36;98834.30;;;22.45;47.81
61805;BME280;47725;47.912;7.356;2023-05-21T20:35:36;98835.74;;;22.34;48.20
61805;BME280;47725;47.912;7.356;2023-05-21T20:39:36;98836.14;;;22.23;48.49
61805;BME280;47725;47.912;7.356;2023-05-21T20:43:36;98835.02;;;22.13;48.66
61805;BME280;47725;47.912;7.356;2023-05-21T20:47:36;98833.39;;;22.04;48.93
61805;BME280;47725;47.912;7.356;2023-05-21T20:51:36;98832.31;;;21.95;49.29
61805;BME280;47725;47.912;7.356;2023-05-21T20:55:37;98831.14;;;21.86;49.66
61805;BME280;47725;47.912;7.356;2023-05-21T20:59:36;98830.83;;;21.76;49.82
61805;BME280;47725;47.912;7.356;2023-05-21T21:03:36;98831.59;;;21.67;49.96
61805;BME280;47725;47.912;7.356;2023-05-21T21:07:36;98834.30;;;21.58;50.25
61805;BME280;47725;47.912;7.356;2023-05-21T21:11:36;98839.04;;;21.51;50.35
61805;BME280;47725;47.912;7.356;2023-05-21T21:15:36;98845.07;;;21.45;50.39
61805;BME280;47725;47.912;7.356;2023-05-21T21:19:36;98852.98;;;21.40;50.40
61805;BME280;47725;47.912;7.356;2023-05-21T21:23:36;98860.28;;;21.36;50.61
61805;BME280;47725;47.912;7.356;2023-05-21T21:27:37;98868.24;;;21.31;52.01
61805;BME280;47725;47.912;7.356;2023-05-21T21:31:36;98875.47;;;21.26;51.29
61805;BME280;47725;47.912;7.356;2023-05-21T21:35:37;98880.59;;;21.22;51.17
61805;BME280;47725;47.912;7.356;2023-05-21T21:39:36;98884.99;;;21.20;51.13